createdAt,value
2023-04-07T00:00:43.702Z,99.90
2023-04-07T00:03:11.680Z,99.90
2023-04-07T00:05:39.727Z,99.90
2023-04-07T00:08:06.720Z,99.90
2023-04-07T00:10:34.417Z,99.90
2023-04-07T00:13:02.973Z,99.90
2023-04-07T00:15:30.237Z,99.90
2023-04-07T00:17:57.365Z,99.90
2023-04-07T00:20:24.425Z,99.90
2023-04-07T00:22:51.379Z,99.90
2023-04-07T00:25:18.410Z,99.90
2023-04-07T00:27:46.923Z,99.90
2023-04-07T00:30:15.583Z,99.90
2023-04-07T00:32:42.690Z,99.90
2023-04-07T00:35:12.590Z,99.90
2023-04-07T00:37:42.717Z,99.90
2023-04-07T00:40:10.220Z,99.90
2023-04-07T00:42:37.172Z,99.90
2023-04-07T00:45:04.439Z,99.90
2023-04-07T00:47:33.064Z,99.90
2023-04-07T00:49:59.996Z,99.90
2023-04-07T00:52:29.135Z,99.90
2023-04-07T00:54:56.439Z,99.90
2023-04-07T00:57:23.666Z,99.90
2023-04-07T00:59:51.677Z,99.90
2023-04-07T01:02:34.070Z,99.90
2023-04-07T01:05:50.544Z,99.90
2023-04-07T01:09:19.524Z,99.90
2023-04-07T01:12:10.301Z,99.90
2023-04-07T01:14:46.070Z,99.90
2023-04-07T01:17:15.427Z,99.90
2023-04-07T01:19:53.526Z,99.90
2023-04-07T01:22:28.809Z,99.90
2023-04-07T01:25:37.545Z,99.90
2023-04-07T01:29:00.324Z,99.90
2023-04-07T01:31:29.062Z,99.90
2023-04-07T01:33:59.312Z,99.90
2023-04-07T01:36:31.665Z,99.90
2023-04-07T01:38:59.896Z,99.90
2023-04-07T01:41:27.943Z,99.90
2023-04-07T01:43:56.541Z,99.90
2023-04-07T01:46:23.603Z,99.90
2023-04-07T01:48:51.755Z,99.90
2023-04-07T01:51:22.501Z,99.90
2023-04-07T01:53:49.752Z,99.90
2023-04-07T01:56:17.200Z,99.90
2023-04-07T01:58:44.164Z,99.90
2023-04-07T02:01:11.203Z,99.90
2023-04-07T02:03:54.616Z,99.90
2023-04-07T02:06:26.905Z,99.90
2023-04-07T02:08:59.174Z,99.90
2023-04-07T02:11:27.562Z,99.90
2023-04-07T02:13:56.853Z,99.90
2023-04-07T02:16:25.432Z,99.90
2023-04-07T02:18:53.908Z,99.90
2023-04-07T02:21:22.938Z,99.90
2023-04-07T02:23:49.895Z,99.90
2023-04-07T02:26:16.988Z,99.90
2023-04-07T02:28:44.009Z,99.90
2023-04-07T02:31:14.288Z,99.90
2023-04-07T02:33:41.229Z,99.90
2023-04-07T02:36:08.261Z,99.90
2023-04-07T02:38:35.142Z,99.90
2023-04-07T02:41:02.076Z,99.90
2023-04-07T02:43:29.293Z,99.90
2023-04-07T02:45:56.769Z,99.90
2023-04-07T02:48:24.098Z,99.90
2023-04-07T02:50:51.157Z,99.90
2023-04-07T02:53:18.114Z,99.90
2023-04-07T02:55:46.346Z,99.90
2023-04-07T02:58:13.262Z,99.90
2023-04-07T03:00:40.448Z,99.90
2023-04-07T03:03:08.268Z,99.90
2023-04-07T03:05:35.382Z,99.90
2023-04-07T03:08:02.529Z,99.90
2023-04-07T03:10:29.429Z,99.90
2023-04-07T03:12:58.890Z,99.90
2023-04-07T03:15:25.842Z,99.90
2023-04-07T03:17:52.821Z,99.90
2023-04-07T03:20:19.973Z,99.90
2023-04-07T03:22:47.492Z,99.90
2023-04-07T03:25:14.749Z,99.90
2023-04-07T03:27:41.751Z,99.90
2023-04-07T03:30:10.898Z,99.90
2023-04-07T03:32:37.935Z,99.90
2023-04-07T03:35:05.141Z,99.90
2023-04-07T03:37:32.092Z,99.90
2023-04-07T03:39:59.094Z,99.90
2023-04-07T03:42:26.029Z,99.90
2023-04-07T03:44:53.514Z,99.90
2023-04-07T03:47:20.832Z,99.90
2023-04-07T03:49:47.709Z,99.90
2023-04-07T03:52:15.712Z,99.90
2023-04-07T03:54:42.641Z,99.90
2023-04-07T03:57:10.113Z,99.90
2023-04-07T03:59:37.158Z,99.90
2023-04-07T04:02:04.164Z,99.90
2023-04-07T04:04:31.140Z,99.90
2023-04-07T04:06:58.118Z,99.90
2023-04-07T04:09:24.987Z,99.90
2023-04-07T04:11:51.983Z,99.90
2023-04-07T04:14:18.910Z,99.90
2023-04-07T04:16:45.869Z,99.90
2023-04-07T04:19:12.993Z,99.90
2023-04-07T04:21:40.027Z,99.90
2023-04-07T04:24:07.084Z,99.90
2023-04-07T04:26:34.055Z,99.90
2023-04-07T04:29:01.081Z,99.90
2023-04-07T04:31:28.284Z,99.90
2023-04-07T04:33:55.522Z,99.90
2023-04-07T04:36:23.645Z,99.90
2023-04-07T04:38:50.929Z,99.90
2023-04-07T04:41:18.112Z,99.90
2023-04-07T04:43:47.866Z,99.90
2023-04-07T04:46:15.033Z,99.90
2023-04-07T04:48:41.994Z,99.90
2023-04-07T04:51:13.141Z,99.90
2023-04-07T04:53:41.097Z,99.90
2023-04-07T04:56:08.209Z,99.90
2023-04-07T04:58:35.730Z,99.90
2023-04-07T05:01:02.696Z,99.90
2023-04-07T05:03:30.966Z,99.90
2023-04-07T05:05:58.014Z,99.90
2023-04-07T05:08:24.948Z,99.90
2023-04-07T05:10:51.982Z,99.90
2023-04-07T05:13:18.959Z,99.90
2023-04-07T05:15:46.370Z,99.90
2023-04-07T05:18:13.588Z,99.90
2023-04-07T05:20:40.636Z,99.90
2023-04-07T05:23:08.097Z,99.90
2023-04-07T05:25:35.054Z,99.90
2023-04-07T05:28:02.059Z,99.90
2023-04-07T05:30:29.389Z,99.90
2023-04-07T05:32:58.432Z,99.90
2023-04-07T05:35:25.570Z,99.90
2023-04-07T05:37:52.461Z,99.90
2023-04-07T05:40:19.509Z,99.90
2023-04-07T05:42:48.586Z,99.90
2023-04-07T05:45:17.219Z,99.90
2023-04-07T05:47:44.219Z,99.90
2023-04-07T05:50:12.378Z,99.90
2023-04-07T05:52:40.625Z,99.90
2023-04-07T05:55:11.028Z,99.90
2023-04-07T05:57:38.230Z,99.90
2023-04-07T06:00:05.843Z,99.90
2023-04-07T06:02:32.815Z,99.90
2023-04-07T06:04:59.947Z,99.90
2023-04-07T06:07:26.946Z,99.90
2023-04-07T06:09:54.643Z,99.90
2023-04-07T06:12:21.728Z,99.90
2023-04-07T06:14:57.173Z,99.90
2023-04-07T06:17:24.200Z,99.90
2023-04-07T06:19:51.344Z,99.90
2023-04-07T06:22:18.303Z,99.90
2023-04-07T06:24:45.272Z,99.90
2023-04-07T06:27:13.007Z,99.90
2023-04-07T06:29:42.765Z,99.90
2023-04-07T06:32:09.936Z,99.90
2023-04-07T06:34:37.032Z,99.90
2023-04-07T06:37:05.599Z,99.90
2023-04-07T06:39:32.860Z,99.90
2023-04-07T06:41:59.905Z,99.90
2023-04-07T06:44:26.882Z,99.90
2023-04-07T06:46:55.615Z,99.90
2023-04-07T06:49:22.805Z,99.90
2023-04-07T06:51:49.840Z,99.90
2023-04-07T06:54:16.851Z,99.90
2023-04-07T06:56:44.625Z,99.90
2023-04-07T06:59:11.975Z,99.90
2023-04-07T07:01:42.463Z,99.90
2023-04-07T07:04:12.225Z,99.90
2023-04-07T07:06:41.607Z,99.90
2023-04-07T07:09:10.019Z,99.90
2023-04-07T07:11:39.495Z,99.90
2023-04-07T07:14:07.888Z,99.90
2023-04-07T07:16:34.965Z,99.90
2023-04-07T07:19:02.012Z,99.90
2023-04-07T07:21:29.013Z,99.90
2023-04-07T07:23:56.373Z,99.90
2023-04-07T07:26:23.377Z,99.90
2023-04-07T07:28:50.554Z,99.90
2023-04-07T07:31:17.837Z,99.90
2023-04-07T07:33:46.633Z,99.90
2023-04-07T07:36:13.763Z,99.90
2023-04-07T07:38:42.193Z,99.90
2023-04-07T07:41:13.192Z,99.90
2023-04-07T07:43:41.173Z,99.90
2023-04-07T07:46:08.896Z,99.90
2023-04-07T07:48:36.601Z,99.90
2023-04-07T07:51:04.878Z,99.90
2023-04-07T07:53:32.069Z,99.90
2023-04-07T07:55:59.187Z,99.90
2023-04-07T07:58:26.167Z,99.90
2023-04-07T08:00:53.188Z,99.90
2023-04-07T08:03:23.508Z,99.90
2023-04-07T08:05:50.930Z,99.90
2023-04-07T08:08:19.001Z,99.90
2023-04-07T08:10:46.046Z,99.90
2023-04-07T08:13:13.090Z,99.90
2023-04-07T08:15:40.828Z,99.90
2023-04-07T08:18:09.324Z,99.90
2023-04-07T08:20:36.905Z,99.90
2023-04-07T08:23:03.850Z,99.90
2023-04-07T08:25:31.029Z,99.90
2023-04-07T08:27:58.002Z,99.90
2023-04-07T08:30:28.096Z,99.90
2023-04-07T08:32:55.307Z,99.90
2023-04-07T08:35:22.926Z,99.90
2023-04-07T08:37:50.530Z,99.90
2023-04-07T08:40:17.770Z,99.90
2023-04-07T08:42:48.506Z,99.90
2023-04-07T08:45:17.963Z,99.90
2023-04-07T08:47:48.378Z,99.90
2023-04-07T08:50:18.496Z,99.90
2023-04-07T08:52:49.920Z,99.90
2023-04-07T08:55:16.964Z,99.90
2023-04-07T08:57:44.193Z,99.90
2023-04-07T09:00:13.172Z,99.90
2023-04-07T09:02:43.700Z,99.90
2023-04-07T09:05:11.183Z,99.90
2023-04-07T09:07:45.920Z,99.90
2023-04-07T09:10:12.930Z,99.90
2023-04-07T09:12:40.039Z,99.90
2023-04-07T09:15:11.805Z,99.90
2023-04-07T09:17:39.797Z,99.90
2023-04-07T09:20:09.614Z,99.90
2023-04-07T09:22:45.801Z,99.90
2023-04-07T09:25:26.538Z,99.90
2023-04-07T09:28:02.190Z,99.90
2023-04-07T09:30:31.306Z,99.90
2023-04-07T09:33:00.230Z,99.90
2023-04-07T09:35:28.588Z,99.90
2023-04-07T09:38:04.044Z,99.90
2023-04-07T09:40:31.233Z,99.90
2023-04-07T09:43:01.329Z,99.90
2023-04-07T09:45:35.144Z,99.90
2023-04-07T09:48:20.392Z,99.90
2023-04-07T09:50:52.068Z,99.90
2023-04-07T09:53:23.297Z,99.90
2023-04-07T09:55:50.802Z,99.90
2023-04-07T09:58:18.897Z,99.90
2023-04-07T10:00:46.939Z,99.90
2023-04-07T10:03:15.551Z,99.90
2023-04-07T10:05:44.134Z,99.90
2023-04-07T10:08:11.381Z,99.90
2023-04-07T10:10:42.957Z,99.90
2023-04-07T10:13:12.346Z,99.90
2023-04-07T10:15:40.790Z,99.90
2023-04-07T10:18:09.372Z,99.90
2023-04-07T10:20:39.803Z,99.90
2023-04-07T10:23:21.239Z,99.90
2023-04-07T10:25:52.777Z,99.90
2023-04-07T10:28:23.022Z,99.90
2023-04-07T10:30:55.131Z,99.90
2023-04-07T10:33:49.537Z,99.90
2023-04-07T10:36:18.254Z,99.90
2023-04-07T10:39:21.981Z,99.90
2023-04-07T10:41:48.954Z,99.90
2023-04-07T10:44:47.159Z,99.90
2023-04-07T10:47:14.424Z,99.90
2023-04-07T10:50:20.651Z,99.90
2023-04-07T10:52:49.539Z,99.90
2023-04-07T10:55:32.936Z,99.90
2023-04-07T10:58:39.978Z,99.90
2023-04-07T11:01:27.689Z,99.90
2023-04-07T11:03:57.913Z,99.90
2023-04-07T11:06:26.459Z,99.90
2023-04-07T11:08:53.486Z,99.90
2023-04-07T11:11:40.841Z,99.90
2023-04-07T11:14:07.891Z,99.90
2023-04-07T11:16:40.144Z,99.90
2023-04-07T11:19:07.430Z,99.90
2023-04-07T11:21:34.708Z,99.90
2023-04-07T11:24:01.691Z,99.90
2023-04-07T11:26:29.148Z,99.90
2023-04-07T11:28:58.966Z,99.90
2023-04-07T11:31:28.062Z,99.90
2023-04-07T11:33:57.157Z,99.90
2023-04-07T11:36:32.411Z,99.90
2023-04-07T11:39:00.801Z,99.90
2023-04-07T11:41:30.910Z,99.90
2023-04-07T11:44:05.891Z,99.90
2023-04-07T11:46:32.826Z,99.90
2023-04-07T11:49:14.578Z,99.90
2023-04-07T11:51:44.418Z,99.90
2023-04-07T11:54:12.207Z,99.90
2023-04-07T11:56:47.464Z,99.90
2023-04-07T11:59:23.097Z,99.90
2023-04-07T12:01:51.897Z,99.90
2023-04-07T12:04:19.881Z,99.90
2023-04-07T12:06:48.376Z,99.90
2023-04-07T12:09:32.688Z,99.90
2023-04-07T12:11:59.994Z,99.90
2023-04-07T12:14:28.049Z,99.90
2023-04-07T12:16:57.828Z,99.90
2023-04-07T12:19:26.216Z,99.90
2023-04-07T12:21:53.261Z,99.90
2023-04-07T12:24:20.510Z,99.90
2023-04-07T12:26:48.639Z,99.90
2023-04-07T12:29:17.189Z,99.90
2023-04-07T12:31:47.566Z,99.90
2023-04-07T12:34:16.810Z,99.90
2023-04-07T12:36:45.664Z,99.90
2023-04-07T12:39:16.173Z,99.90
2023-04-07T12:41:44.927Z,99.90
2023-04-07T12:44:12.467Z,99.90
2023-04-07T12:46:40.820Z,99.90
2023-04-07T12:49:09.338Z,99.90
2023-04-07T12:51:37.609Z,99.90
2023-04-07T12:54:04.613Z,99.90
2023-04-07T12:56:31.777Z,99.90
2023-04-07T12:58:58.886Z,99.90
2023-04-07T13:01:26.203Z,99.90
2023-04-07T13:03:53.977Z,99.90
2023-04-07T13:06:21.361Z,99.90
2023-04-07T13:08:48.402Z,99.90
2023-04-07T13:11:15.565Z,99.90
2023-04-07T13:13:42.606Z,99.90
2023-04-07T13:16:09.897Z,99.90
2023-04-07T13:18:37.359Z,99.90
2023-04-07T13:21:38.329Z,99.90
2023-04-07T13:23:53.815Z,96.00
2023-04-07T13:26:22.582Z,99.30
2023-04-07T13:28:50.925Z,97.60
2023-04-07T13:31:18.765Z,97.00
2023-04-07T13:33:48.180Z,97.70
2023-04-07T13:36:15.687Z,97.40
2023-04-07T13:38:45.076Z,98.70
2023-04-07T13:41:12.203Z,99.90
2023-04-07T13:43:40.963Z,99.90
2023-04-07T13:46:14.260Z,99.90
2023-04-07T13:48:48.951Z,99.90
2023-04-07T13:51:16.088Z,99.90
2023-04-07T13:53:43.152Z,99.90
2023-04-07T13:56:10.789Z,99.90
2023-04-07T13:58:40.192Z,99.90
2023-04-07T14:01:09.511Z,99.90
2023-04-07T14:03:36.625Z,99.90
2023-04-07T14:06:06.675Z,99.90
2023-04-07T14:08:34.195Z,99.90
2023-04-07T14:11:03.188Z,99.90
2023-04-07T14:13:31.195Z,99.90
2023-04-07T14:15:58.663Z,98.00
2023-04-07T14:18:28.180Z,98.20
2023-04-07T14:20:55.267Z,97.40
2023-04-07T14:23:30.273Z,94.40
2023-04-07T14:26:03.895Z,94.80
2023-04-07T14:28:32.163Z,96.60
2023-04-07T14:31:02.421Z,96.50
2023-04-07T14:33:30.085Z,96.10
2023-04-07T14:35:57.780Z,97.00
2023-04-07T14:38:30.084Z,91.80
2023-04-07T14:43:27.283Z,88.00
2023-04-07T14:45:54.396Z,89.10
2023-04-07T14:48:22.223Z,88.90
2023-04-07T14:50:53.864Z,90.70
2023-04-07T14:53:30.645Z,89.80
2023-04-07T14:55:58.895Z,89.90
2023-04-07T14:58:26.191Z,88.30
2023-04-07T15:00:53.212Z,83.50
2023-04-07T15:03:20.458Z,84.60
2023-04-07T15:05:47.669Z,81.70
2023-04-07T15:08:15.897Z,81.40
2023-04-07T15:10:42.918Z,79.70
2023-04-07T15:13:09.908Z,80.80
2023-04-07T15:15:36.941Z,80.80
2023-04-07T15:18:04.427Z,85.40
2023-04-07T15:20:31.432Z,87.10
2023-04-07T15:23:00.453Z,79.10
2023-04-07T15:25:28.951Z,74.50
2023-04-07T15:27:55.953Z,76.20
2023-04-07T15:30:23.464Z,75.00
2023-04-07T15:33:01.064Z,78.60
2023-04-07T15:35:28.060Z,72.50
2023-04-07T15:37:55.297Z,74.60
2023-04-07T15:40:22.648Z,76.70
2023-04-07T15:42:49.571Z,75.60
2023-04-07T15:45:19.309Z,66.00
2023-04-07T15:47:48.741Z,64.90
2023-04-07T15:50:16.831Z,64.40
2023-04-07T15:52:46.010Z,60.80
2023-04-07T15:55:13.117Z,64.00
2023-04-07T15:57:41.031Z,62.80
2023-04-07T16:00:09.269Z,58.80
2023-04-07T16:02:36.342Z,56.30
2023-04-07T16:05:03.714Z,56.40
2023-04-07T16:07:30.971Z,61.30
2023-04-07T16:09:57.893Z,56.40
2023-04-07T16:12:24.887Z,53.40
2023-04-07T16:14:51.943Z,53.20
2023-04-07T16:17:19.304Z,46.40
2023-04-07T16:19:46.306Z,45.70
2023-04-07T16:22:13.300Z,48.40
2023-04-07T16:24:40.375Z,48.10
2023-04-07T16:27:07.927Z,47.20
2023-04-07T16:29:34.913Z,44.30
2023-04-07T16:32:03.042Z,49.80
2023-04-07T16:34:32.046Z,51.60
2023-04-07T16:36:59.411Z,50.90
2023-04-07T16:39:28.285Z,48.80
2023-04-07T16:41:56.479Z,50.30
2023-04-07T16:44:23.981Z,54.00
2023-04-07T16:46:50.919Z,50.20
2023-04-07T16:49:18.241Z,51.40
2023-04-07T16:51:45.230Z,54.30
2023-04-07T16:54:20.868Z,51.50
2023-04-07T16:56:49.801Z,50.40
2023-04-07T16:59:16.872Z,51.40
2023-04-07T17:01:44.839Z,49.80
2023-04-07T17:04:11.912Z,50.40
2023-04-07T17:06:40.138Z,52.50
2023-04-07T17:09:07.205Z,54.40
2023-04-07T17:11:34.215Z,56.10
2023-04-07T17:14:02.301Z,56.20
2023-04-07T17:16:29.506Z,59.60
2023-04-07T17:18:57.031Z,59.10
2023-04-07T17:21:24.140Z,59.40
2023-04-07T17:23:51.853Z,60.10
2023-04-07T17:26:18.888Z,60.10
2023-04-07T17:28:46.647Z,61.00
2023-04-07T17:31:14.889Z,63.90
2023-04-07T17:33:42.346Z,66.60
2023-04-07T17:36:10.238Z,68.20
2023-04-07T17:38:38.043Z,69.60
2023-04-07T17:41:05.100Z,71.10
2023-04-07T17:43:32.169Z,75.40
2023-04-07T17:45:59.230Z,76.70
2023-04-07T17:48:26.714Z,78.10
2023-04-07T17:50:53.700Z,80.70
2023-04-07T17:53:20.724Z,82.30
2023-04-07T17:55:47.702Z,84.40
2023-04-07T17:58:14.830Z,85.30
2023-04-07T18:00:42.196Z,87.20
2023-04-07T18:03:11.288Z,89.80
2023-04-07T18:05:42.755Z,90.90
2023-04-07T18:08:09.717Z,91.40
2023-04-07T18:10:36.980Z,91.40
2023-04-07T18:13:05.753Z,91.40
2023-04-07T18:15:33.560Z,92.20
2023-04-07T18:18:00.693Z,92.60
2023-04-07T18:20:27.741Z,93.10
2023-04-07T18:22:55.689Z,93.30
2023-04-07T18:25:24.085Z,93.60
2023-04-07T18:27:51.129Z,93.60
2023-04-07T18:30:22.092Z,93.70
2023-04-07T18:32:49.700Z,94.10
2023-04-07T18:35:17.767Z,94.90
2023-04-07T18:37:44.810Z,96.40
2023-04-07T18:40:12.352Z,97.70
2023-04-07T18:42:40.821Z,98.40
2023-04-07T18:45:08.617Z,98.60
2023-04-07T18:47:35.658Z,99.90
2023-04-07T18:50:03.458Z,99.90
2023-04-07T18:52:30.451Z,99.90
2023-04-07T18:54:58.045Z,99.90
2023-04-07T18:57:25.099Z,99.90
2023-04-07T18:59:53.057Z,99.90
2023-04-07T19:02:20.201Z,99.90
2023-04-07T19:04:49.614Z,99.90
2023-04-07T19:07:16.591Z,99.90
2023-04-07T19:09:43.662Z,99.90
2023-04-07T19:12:11.651Z,99.90
2023-04-07T19:14:39.831Z,99.90
2023-04-07T19:17:07.140Z,99.90
2023-04-07T19:19:34.600Z,99.90
2023-04-07T19:22:01.707Z,99.90
2023-04-07T19:24:28.771Z,99.90
2023-04-07T19:26:57.889Z,99.90
2023-04-07T19:29:24.922Z,99.90
2023-04-07T19:31:53.129Z,99.90
2023-04-07T19:34:20.681Z,99.90
2023-04-07T19:36:47.665Z,99.90
2023-04-07T19:39:14.573Z,99.90
2023-04-07T19:41:45.086Z,99.90
2023-04-07T19:44:12.534Z,99.90
2023-04-07T19:46:39.905Z,99.90
2023-04-07T19:49:06.911Z,99.90
2023-04-07T19:51:34.053Z,99.90
2023-04-07T19:54:01.190Z,99.90
2023-04-07T19:56:28.266Z,99.90
2023-04-07T19:58:55.392Z,99.90
2023-04-07T20:01:22.445Z,99.90
2023-04-07T20:03:49.489Z,99.90
2023-04-07T20:06:17.370Z,99.90
2023-04-07T20:08:44.353Z,99.90
2023-04-07T20:11:13.121Z,99.90
2023-04-07T20:13:41.327Z,99.90
2023-04-07T20:16:10.158Z,99.90
2023-04-07T20:18:37.420Z,99.90
2023-04-07T20:21:09.999Z,99.90
2023-04-07T20:23:36.997Z,99.90
2023-04-07T20:26:04.333Z,99.90
2023-04-07T20:28:32.076Z,99.90
2023-04-07T20:31:00.222Z,99.90
2023-04-07T20:33:27.349Z,99.90
2023-04-07T20:35:54.856Z,99.90
2023-04-07T20:38:21.950Z,99.90
2023-04-07T20:40:49.022Z,99.90
2023-04-07T20:43:18.235Z,99.90
2023-04-07T20:45:47.584Z,99.90
2023-04-07T20:48:16.763Z,99.90
2023-04-07T20:50:43.692Z,99.90
2023-04-07T20:53:10.666Z,99.90
2023-04-07T20:55:37.687Z,99.90
2023-04-07T20:58:04.648Z,99.90
2023-04-07T21:00:31.596Z,99.90
2023-04-07T21:02:58.591Z,99.90
2023-04-07T21:05:25.726Z,99.90
2023-04-07T21:07:52.726Z,99.90
2023-04-07T21:10:20.430Z,99.90
2023-04-07T21:12:47.402Z,99.90
2023-04-07T21:15:14.912Z,99.90
2023-04-07T21:17:42.084Z,99.90
2023-04-07T21:20:11.628Z,99.90
2023-04-07T21:22:39.116Z,99.90
2023-04-07T21:25:07.219Z,99.90
2023-04-07T21:27:34.621Z,99.90
2023-04-07T21:30:07.089Z,99.90
2023-04-07T21:32:34.380Z,99.90
2023-04-07T21:35:01.548Z,99.90
2023-04-07T21:37:28.542Z,99.90
2023-04-07T21:39:56.930Z,99.90
2023-04-07T21:42:25.224Z,99.90
2023-04-07T21:44:52.113Z,99.90
2023-04-07T21:47:19.230Z,99.90
2023-04-07T21:49:46.494Z,99.90
2023-04-07T21:52:13.426Z,99.90
2023-04-07T21:54:40.373Z,99.90
2023-04-07T21:57:07.678Z,99.90
2023-04-07T21:59:36.108Z,99.90
2023-04-07T22:02:03.783Z,99.90
2023-04-07T22:04:32.167Z,99.90
2023-04-07T22:06:59.177Z,99.90
2023-04-07T22:09:27.274Z,99.90
2023-04-07T22:11:54.275Z,99.90
2023-04-07T22:14:25.128Z,99.90
2023-04-07T22:16:52.577Z,99.90
2023-04-07T22:19:19.546Z,99.90
2023-04-07T22:21:47.677Z,99.90
2023-04-07T22:24:14.601Z,99.90
2023-04-07T22:26:41.679Z,99.90
2023-04-07T22:29:10.089Z,99.90
2023-04-07T22:31:37.247Z,99.90
2023-04-07T22:34:04.261Z,99.90
2023-04-07T22:36:31.941Z,99.90
2023-04-07T22:38:58.839Z,99.90
2023-04-07T22:41:26.663Z,99.90
2023-04-07T22:43:53.711Z,99.90
2023-04-07T22:46:20.800Z,99.90
2023-04-07T22:48:49.545Z,99.90
2023-04-07T22:51:16.630Z,99.90
2023-04-07T22:53:43.573Z,99.90
2023-04-07T22:56:10.686Z,99.90
2023-04-07T22:58:37.727Z,99.90
2023-04-07T23:01:04.854Z,99.90
2023-04-07T23:03:32.347Z,99.90
2023-04-07T23:06:01.262Z,99.90
2023-04-07T23:08:28.279Z,99.90
2023-04-07T23:10:55.467Z,99.90
2023-04-07T23:13:22.458Z,99.90
2023-04-07T23:15:49.425Z,99.90
2023-04-07T23:18:16.370Z,99.90
2023-04-07T23:20:52.583Z,99.90
2023-04-07T23:23:19.537Z,99.90
2023-04-07T23:25:46.576Z,99.90
2023-04-07T23:28:13.525Z,99.90
2023-04-07T23:30:41.081Z,99.90
2023-04-07T23:33:09.189Z,99.90
2023-04-07T23:35:36.275Z,99.90
2023-04-07T23:38:04.355Z,99.90
2023-04-07T23:40:31.320Z,99.90
2023-04-07T23:42:58.263Z,99.90
2023-04-07T23:45:25.307Z,99.90
2023-04-07T23:47:52.444Z,99.90
2023-04-07T23:50:19.666Z,99.90
2023-04-07T23:52:47.289Z,99.90
2023-04-07T23:55:14.239Z,99.90
2023-04-07T23:57:41.309Z,99.90
